Terminal Aerodrome Forecast
Issued by NWS

Home | Current Version | Previous Version | Text Only | Print | Product List | Glossary On
Versions: 1 2 3 4 5 6 7 8 9 10 11 12 13 14 15 16
000
FTUS45 KGJT 290052 AAC
TAFASE
TAF AMD
KASE 290052Z 2901/2924 27005KT P6SM VCTS BKN070CB OVC090
      TEMPO 2901/2902 VRB12G20KT P6SM -TSRA BKN050CB OVC070
     FM290200 15005KT P6SM VCTS BKN060CB OVC090
     FM290800 20004KT P6SM BKN100
     FM291800 06004KT P6SM VCTS BKN120CB
     FM292300 10004KT P6SM VCTS BKN080CB=

USA.gov is the U.S. government's official web portal to all federal, state and local government web resources and services.